createdAt,value
2017-11-14T00:00:02.227Z,89.51
2017-11-14T00:02:29.765Z,90.42
2017-11-14T00:04:57.214Z,90.77
2017-11-14T00:07:24.776Z,90.67
2017-11-14T00:09:52.240Z,91.19
2017-11-14T00:12:19.707Z,91.14
2017-11-14T00:14:47.150Z,90.96
2017-11-14T00:17:14.648Z,90.81
2017-11-14T00:19:42.096Z,90.92
2017-11-14T00:22:09.624Z,91.87
2017-11-14T00:24:37.140Z,91.95
2017-11-14T00:27:04.596Z,91.23
2017-11-14T00:29:32.080Z,90.83
2017-11-14T00:31:59.556Z,91.12
2017-11-14T00:34:27.023Z,91.33
2017-11-14T00:36:54.561Z,90.69
2017-11-14T00:39:22.030Z,90.68
2017-11-14T00:41:49.588Z,90.79
2017-11-14T00:44:17.051Z,90.67
2017-11-14T00:46:44.496Z,90.58
2017-11-14T00:49:12.054Z,90.77
2017-11-14T00:51:39.611Z,90.85
2017-11-14T00:54:07.079Z,91.26
2017-11-14T00:56:34.534Z,92.26
2017-11-14T00:59:02.007Z,92.95
2017-11-14T01:01:29.447Z,92.82
2017-11-14T01:03:56.883Z,91.33
2017-11-14T01:06:24.438Z,91.56
2017-11-14T01:08:51.880Z,90.92
2017-11-14T01:11:19.350Z,90.64
2017-11-14T01:13:46.806Z,91.16
2017-11-14T01:16:14.285Z,90.59
2017-11-14T01:18:41.749Z,90.39
2017-11-14T01:21:09.245Z,90.42
2017-11-14T01:23:36.711Z,90.80
2017-11-14T01:26:04.214Z,90.89
2017-11-14T01:28:31.668Z,89.75
2017-11-14T01:30:59.139Z,90.28
2017-11-14T01:33:26.606Z,89.57
2017-11-14T01:35:54.141Z,89.36
2017-11-14T01:38:21.605Z,88.39
2017-11-14T01:40:49.065Z,89.21
2017-11-14T01:43:16.546Z,90.15
2017-11-14T01:45:44.071Z,90.09
2017-11-14T01:48:11.558Z,90.69
2017-11-14T01:50:39.027Z,90.23
2017-11-14T01:53:06.505Z,91.26
2017-11-14T01:55:33.962Z,90.37
2017-11-14T01:58:01.453Z,90.13
2017-11-14T02:00:40.717Z,91.02
2017-11-14T02:03:08.270Z,91.14
2017-11-14T02:05:35.734Z,90.33
2017-11-14T02:08:03.219Z,90.02
2017-11-14T02:10:30.682Z,90.22
2017-11-14T02:12:58.168Z,90.18
2017-11-14T02:15:25.649Z,90.33
2017-11-14T02:17:53.139Z,90.33
2017-11-14T02:20:20.605Z,89.61
2017-11-14T02:22:48.066Z,90.23
2017-11-14T02:25:15.554Z,89.95
2017-11-14T02:27:43.046Z,90.16
2017-11-14T02:30:10.526Z,90.20
2017-11-14T02:32:38.032Z,90.04
2017-11-14T02:35:05.519Z,89.77
2017-11-14T02:37:32.982Z,90.03
2017-11-14T02:40:00.471Z,89.56
2017-11-14T02:42:27.935Z,89.69
2017-11-14T02:44:55.523Z,89.27
2017-11-14T02:47:22.987Z,90.13
2017-11-14T02:49:50.474Z,89.95
2017-11-14T02:52:17.936Z,90.03
2017-11-14T02:54:45.430Z,89.61
2017-11-14T02:57:12.917Z,89.51
2017-11-14T02:59:40.423Z,90.34
2017-11-14T03:02:07.888Z,89.92
2017-11-14T03:04:35.379Z,88.98
2017-11-14T03:07:02.859Z,90.08
2017-11-14T03:09:30.395Z,90.74
2017-11-14T03:11:57.863Z,89.89
2017-11-14T03:14:25.344Z,89.62
2017-11-14T03:16:52.826Z,89.14
2017-11-14T03:19:20.294Z,89.75
2017-11-14T03:21:47.787Z,89.75
2017-11-14T03:24:15.266Z,89.13
2017-11-14T03:26:42.794Z,88.59
2017-11-14T03:29:10.263Z,89.12
2017-11-14T03:31:37.751Z,89.61
2017-11-14T03:34:05.210Z,89.28
2017-11-14T03:36:32.708Z,89.81
2017-11-14T03:39:00.165Z,88.97
2017-11-14T03:41:27.699Z,89.04
2017-11-14T03:43:55.171Z,88.56
2017-11-14T03:46:22.631Z,88.65
2017-11-14T03:48:50.133Z,89.18
2017-11-14T03:51:17.594Z,88.54
2017-11-14T03:53:45.076Z,88.81
2017-11-14T03:56:12.543Z,89.09
2017-11-14T03:58:40.038Z,88.47
2017-11-14T04:01:07.523Z,88.39
2017-11-14T04:03:35.002Z,88.91
2017-11-14T04:06:02.460Z,88.75
2017-11-14T04:08:29.949Z,88.62
2017-11-14T04:10:57.414Z,89.75
2017-11-14T04:13:24.890Z,89.05
2017-11-14T04:15:52.353Z,89.89
2017-11-14T04:18:19.858Z,89.92
2017-11-14T04:20:47.322Z,90.31
2017-11-14T04:23:14.784Z,90.10
2017-11-14T04:25:42.268Z,89.99
2017-11-14T04:28:09.737Z,89.43
2017-11-14T04:30:37.230Z,88.90
2017-11-14T04:33:04.691Z,88.71
2017-11-14T04:35:32.172Z,88.94
2017-11-14T04:37:59.637Z,89.01
2017-11-14T04:40:27.215Z,90.36
2017-11-14T04:42:54.678Z,90.38
2017-11-14T04:45:22.162Z,90.20
2017-11-14T04:47:49.654Z,90.61
2017-11-14T04:50:17.142Z,90.52
2017-11-14T04:52:44.692Z,89.93
2017-11-14T04:55:12.174Z,89.90
2017-11-14T04:57:39.661Z,89.56
2017-11-14T05:00:07.186Z,89.43
2017-11-14T05:02:34.641Z,89.47
2017-11-14T05:05:02.098Z,89.14
2017-11-14T05:07:29.587Z,88.86
2017-11-14T05:09:57.086Z,88.96
2017-11-14T05:12:24.562Z,88.45
2017-11-14T05:14:52.019Z,88.33
2017-11-14T05:17:19.527Z,88.48
2017-11-14T05:19:47.023Z,87.88
2017-11-14T05:22:14.507Z,88.33
2017-11-14T05:24:41.966Z,88.06
2017-11-14T05:27:09.469Z,88.82
2017-11-14T05:29:36.925Z,88.59
2017-11-14T05:32:04.406Z,89.01
2017-11-14T05:34:31.866Z,88.65
2017-11-14T05:36:59.378Z,88.64
2017-11-14T05:39:26.844Z,88.57
2017-11-14T05:41:54.363Z,88.52
2017-11-14T05:44:21.866Z,88.44
2017-11-14T05:46:49.395Z,88.70
2017-11-14T05:49:16.873Z,89.83
2017-11-14T05:51:44.430Z,90.27
2017-11-14T05:54:11.910Z,89.46
2017-11-14T05:56:39.394Z,89.24
2017-11-14T05:59:06.871Z,89.39
2017-11-14T06:01:34.346Z,89.07
2017-11-14T06:04:01.839Z,89.09
2017-11-14T06:06:29.415Z,88.86
2017-11-14T06:08:56.905Z,88.24
2017-11-14T06:11:24.378Z,88.23
2017-11-14T06:13:51.859Z,89.05
2017-11-14T06:16:19.338Z,89.34
2017-11-14T06:18:46.827Z,89.26
2017-11-14T06:21:14.363Z,89.23
2017-11-14T06:23:41.886Z,89.92
2017-11-14T06:26:09.370Z,89.67
2017-11-14T06:28:36.838Z,90.30
2017-11-14T06:31:04.337Z,89.75
2017-11-14T06:33:31.828Z,89.92
2017-11-14T06:35:59.324Z,90.45
2017-11-14T06:38:26.783Z,91.76
2017-11-14T06:40:54.267Z,91.54
2017-11-14T06:43:21.770Z,89.93
2017-11-14T06:45:49.333Z,90.17
2017-11-14T06:48:16.794Z,88.08
2017-11-14T06:50:44.297Z,89.03
2017-11-14T06:53:11.803Z,89.38
2017-11-14T06:55:39.317Z,89.28
2017-11-14T06:58:06.807Z,88.75
2017-11-14T07:00:34.273Z,88.72
2017-11-14T07:03:01.759Z,88.84
2017-11-14T07:05:29.291Z,89.51
2017-11-14T07:07:56.789Z,89.01
2017-11-14T07:10:24.249Z,89.18
2017-11-14T07:12:51.738Z,89.40
2017-11-14T07:15:19.216Z,89.34
2017-11-14T07:17:46.744Z,89.13
2017-11-14T07:20:14.204Z,88.76
2017-11-14T07:22:41.735Z,89.37
2017-11-14T07:25:09.176Z,89.73
2017-11-14T07:27:36.686Z,89.36
2017-11-14T07:30:04.151Z,89.27
2017-11-14T07:32:31.655Z,89.22
2017-11-14T07:34:59.126Z,89.84
2017-11-14T07:37:26.611Z,89.91
2017-11-14T07:39:54.195Z,89.65
2017-11-14T07:42:21.654Z,89.90
2017-11-14T07:44:49.140Z,89.07
2017-11-14T07:47:16.610Z,89.97
2017-11-14T07:49:44.118Z,89.69
2017-11-14T07:52:11.578Z,90.05
2017-11-14T07:54:39.054Z,90.29
2017-11-14T07:57:06.601Z,89.08
2017-11-14T07:59:34.131Z,89.41
2017-11-14T08:02:01.628Z,89.12
2017-11-14T08:04:29.119Z,89.77
2017-11-14T08:06:56.605Z,89.78
2017-11-14T08:09:24.182Z,90.84
2017-11-14T08:11:52.432Z,90.15
2017-11-14T08:14:20.212Z,89.86
2017-11-14T08:16:47.786Z,90.22
2017-11-14T08:19:15.245Z,89.76
2017-11-14T08:21:42.800Z,89.40
2017-11-14T08:24:10.262Z,89.42
2017-11-14T08:26:37.750Z,89.99
2017-11-14T08:29:05.224Z,90.41
2017-11-14T08:31:32.710Z,90.02
2017-11-14T08:34:00.235Z,91.04
2017-11-14T08:36:27.713Z,89.94
2017-11-14T08:38:55.175Z,90.03
2017-11-14T08:41:23.332Z,89.43
2017-11-14T08:43:50.827Z,89.63
2017-11-14T08:46:18.313Z,89.18
2017-11-14T08:48:45.798Z,88.99
2017-11-14T08:51:13.460Z,88.93
2017-11-14T08:53:40.925Z,89.17
2017-11-14T08:56:08.521Z,88.60
2017-11-14T08:58:35.978Z,89.14
2017-11-14T09:01:03.452Z,88.83
2017-11-14T09:03:30.913Z,88.15
2017-11-14T09:05:58.380Z,87.80
2017-11-14T09:08:25.872Z,87.41
2017-11-14T09:10:53.354Z,87.56
2017-11-14T09:13:20.845Z,88.05
2017-11-14T09:15:48.313Z,86.55
2017-11-14T09:18:15.834Z,86.13
2017-11-14T09:20:43.313Z,87.25
2017-11-14T09:23:10.799Z,87.00
2017-11-14T09:25:38.261Z,87.15
2017-11-14T09:28:05.749Z,87.50
2017-11-14T09:30:33.319Z,86.88
2017-11-14T09:33:00.813Z,87.26
2017-11-14T09:35:28.304Z,87.01
2017-11-14T09:37:55.771Z,86.58
2017-11-14T09:40:23.254Z,86.24
2017-11-14T09:42:50.721Z,85.82
2017-11-14T09:45:18.218Z,86.63
2017-11-14T09:47:45.679Z,86.95
2017-11-14T09:50:13.186Z,87.01
2017-11-14T09:52:40.677Z,86.45
2017-11-14T09:55:08.174Z,85.30
2017-11-14T09:57:35.651Z,85.11
2017-11-14T10:00:03.144Z,84.50
2017-11-14T10:02:30.607Z,83.95
2017-11-14T10:04:58.162Z,83.88
2017-11-14T10:07:25.646Z,84.36
2017-11-14T10:09:53.126Z,82.61
2017-11-14T10:12:20.586Z,81.96
2017-11-14T10:14:48.073Z,81.85
2017-11-14T10:17:15.549Z,84.26
2017-11-14T10:19:43.167Z,83.73
2017-11-14T10:22:10.638Z,83.37
2017-11-14T10:24:38.102Z,83.08
2017-11-14T10:27:05.619Z,83.37
2017-11-14T10:29:33.091Z,82.81
2017-11-14T10:32:00.585Z,83.11
2017-11-14T10:34:28.063Z,84.20
2017-11-14T10:36:55.548Z,82.77
2017-11-14T10:39:23.118Z,82.61
2017-11-14T10:41:50.601Z,83.05
2017-11-14T10:44:18.059Z,82.06
2017-11-14T10:46:45.545Z,81.55
2017-11-14T10:49:13.011Z,79.70
2017-11-14T10:51:40.518Z,80.93
2017-11-14T10:54:07.983Z,80.68
2017-11-14T10:56:35.487Z,80.58
2017-11-14T10:59:02.987Z,80.85
2017-11-14T11:01:30.534Z,79.58
2017-11-14T11:03:57.997Z,80.10
2017-11-14T11:06:25.483Z,80.81
2017-11-14T11:08:52.973Z,81.51
2017-11-14T11:11:20.450Z,80.57
2017-11-14T11:13:47.945Z,80.66
2017-11-14T11:16:15.458Z,80.43
2017-11-14T11:18:42.971Z,81.45
2017-11-14T11:21:10.508Z,80.60
2017-11-14T11:23:38.019Z,79.75
2017-11-14T11:26:05.494Z,79.60
2017-11-14T11:28:32.974Z,80.38
2017-11-14T11:31:00.476Z,80.81
2017-11-14T11:33:27.978Z,75.72
2017-11-14T11:35:55.443Z,76.17
2017-11-14T11:38:22.906Z,75.01
2017-11-14T11:40:50.382Z,73.12
2017-11-14T11:43:17.838Z,73.14
2017-11-14T11:45:45.371Z,71.17
2017-11-14T11:48:12.829Z,71.92
2017-11-14T11:50:40.306Z,72.32
2017-11-14T11:53:07.766Z,72.25
2017-11-14T11:55:35.246Z,73.44
2017-11-14T11:58:02.724Z,73.79
2017-11-14T12:00:30.232Z,72.92
2017-11-14T12:02:57.690Z,72.77
2017-11-14T12:05:25.226Z,72.34
2017-11-14T12:07:52.763Z,72.25
2017-11-14T12:10:20.214Z,72.55
2017-11-14T12:12:47.799Z,72.95
2017-11-14T12:15:15.363Z,72.98
2017-11-14T12:17:42.915Z,71.75
2017-11-14T12:20:10.478Z,71.68
2017-11-14T12:22:37.959Z,70.22
2017-11-14T12:25:05.423Z,69.78
2017-11-14T12:27:32.924Z,69.19
2017-11-14T12:30:00.378Z,68.34
2017-11-14T12:32:27.851Z,69.76
2017-11-14T12:34:55.323Z,70.04
2017-11-14T12:37:22.837Z,69.85
2017-11-14T12:39:50.298Z,68.78
2017-11-14T12:42:17.747Z,67.84
2017-11-14T12:44:45.239Z,66.92
2017-11-14T12:47:12.714Z,68.05
2017-11-14T12:49:40.202Z,67.72
2017-11-14T12:52:07.698Z,67.84
2017-11-14T12:54:35.287Z,66.77
2017-11-14T12:57:02.748Z,66.70
2017-11-14T12:59:30.223Z,65.20
2017-11-14T13:01:57.692Z,64.83
2017-11-14T13:04:25.180Z,64.49
2017-11-14T13:06:52.649Z,66.14
2017-11-14T13:09:20.126Z,64.88
2017-11-14T13:11:47.674Z,64.47
2017-11-14T13:14:15.192Z,64.03
2017-11-14T13:16:42.683Z,63.37
2017-11-14T13:19:10.142Z,64.71
2017-11-14T13:21:37.965Z,64.32
2017-11-14T13:24:05.467Z,64.65
2017-11-14T13:26:33.031Z,64.21
2017-11-14T13:29:00.504Z,62.98
2017-11-14T13:31:27.989Z,63.05
2017-11-14T13:33:55.450Z,62.25
2017-11-14T13:36:22.934Z,63.57
2017-11-14T13:38:50.394Z,62.27
2017-11-14T13:41:17.906Z,61.89
2017-11-14T13:43:45.443Z,62.92
2017-11-14T13:46:12.959Z,62.39
2017-11-14T13:48:40.430Z,62.10
2017-11-14T13:51:08.003Z,61.69
2017-11-14T13:53:35.532Z,61.89
2017-11-14T13:56:03.019Z,61.91
2017-11-14T13:58:30.582Z,61.79
2017-11-14T14:00:58.047Z,61.49
2017-11-14T14:03:25.542Z,62.97
2017-11-14T14:05:52.997Z,62.06
2017-11-14T14:08:20.491Z,62.00
2017-11-14T14:10:47.967Z,61.78
2017-11-14T14:13:15.531Z,61.75
2017-11-14T14:15:43.004Z,61.91
2017-11-14T14:18:10.487Z,62.05
2017-11-14T14:20:37.951Z,62.61
2017-11-14T14:23:05.434Z,62.69
2017-11-14T14:25:33.010Z,62.40
2017-11-14T14:28:00.479Z,62.84
2017-11-14T14:30:27.970Z,63.10
2017-11-14T14:32:55.427Z,64.37
2017-11-14T14:35:22.911Z,64.25
2017-11-14T14:37:50.375Z,63.63
2017-11-14T14:40:17.989Z,64.24
2017-11-14T14:42:45.450Z,64.20
2017-11-14T14:45:12.958Z,63.65
2017-11-14T14:47:40.426Z,64.99
2017-11-14T14:50:07.906Z,64.29
2017-11-14T14:52:35.375Z,65.21
2017-11-14T14:55:02.851Z,65.10
2017-11-14T14:57:30.310Z,65.11
2017-11-14T14:59:57.850Z,66.29
2017-11-14T15:02:25.322Z,66.78
2017-11-14T15:04:52.802Z,66.84
2017-11-14T15:07:20.282Z,67.55
2017-11-14T15:09:47.839Z,68.13
2017-11-14T15:12:15.394Z,69.93
2017-11-14T15:14:42.855Z,70.44
2017-11-14T15:17:10.347Z,69.08
2017-11-14T15:19:37.808Z,70.01
2017-11-14T15:22:05.291Z,70.59
2017-11-14T15:24:32.764Z,70.54
2017-11-14T15:27:00.238Z,70.60
2017-11-14T15:29:27.704Z,71.20
2017-11-14T15:31:55.178Z,72.04
2017-11-14T15:34:22.842Z,72.76
2017-11-14T15:36:50.375Z,73.86
2017-11-14T15:39:17.834Z,75.00
2017-11-14T15:41:45.328Z,75.16
2017-11-14T15:44:12.795Z,75.80
2017-11-14T15:46:40.296Z,77.06
2017-11-14T15:49:07.771Z,77.12
2017-11-14T15:51:35.312Z,77.38
2017-11-14T15:54:02.829Z,77.91
2017-11-14T15:56:30.290Z,78.01
2017-11-14T15:58:57.776Z,78.85
2017-11-14T16:01:25.256Z,79.52
2017-11-14T16:03:52.903Z,79.48
2017-11-14T16:06:20.361Z,79.65
2017-11-14T16:08:47.842Z,79.70
2017-11-14T16:11:15.314Z,80.31
2017-11-14T16:13:42.802Z,80.27
2017-11-14T16:16:10.305Z,80.27
2017-11-14T16:18:37.808Z,80.67
2017-11-14T16:21:05.274Z,81.22
2017-11-14T16:23:32.730Z,80.99
2017-11-14T16:26:00.220Z,81.21
2017-11-14T16:28:27.689Z,81.53
2017-11-14T16:30:55.180Z,81.51
2017-11-14T16:33:22.643Z,82.03
2017-11-14T16:35:50.125Z,82.36
2017-11-14T16:38:17.610Z,81.64
2017-11-14T16:40:45.160Z,81.55
2017-11-14T16:43:12.623Z,82.16
2017-11-14T16:45:40.180Z,81.45
2017-11-14T16:48:07.730Z,82.35
2017-11-14T16:50:35.296Z,82.14
2017-11-14T16:53:02.754Z,82.36
2017-11-14T16:55:30.221Z,82.93
2017-11-14T16:57:57.706Z,82.34
2017-11-14T17:00:25.175Z,82.25
2017-11-14T17:02:52.668Z,82.84
2017-11-14T17:05:20.140Z,82.71
2017-11-14T17:07:47.686Z,82.28
2017-11-14T17:10:15.154Z,83.02
2017-11-14T17:12:42.654Z,82.37
2017-11-14T17:15:10.119Z,82.84
2017-11-14T17:17:37.621Z,82.30
2017-11-14T17:20:05.082Z,82.85
2017-11-14T17:22:33.403Z,83.00
2017-11-14T17:25:00.866Z,83.21
2017-11-14T17:27:28.370Z,83.31
2017-11-14T17:29:55.826Z,82.97
2017-11-14T17:32:23.291Z,83.15
2017-11-14T17:34:50.782Z,83.08
2017-11-14T17:37:18.246Z,83.61
2017-11-14T17:39:45.754Z,83.56
2017-11-14T17:42:13.293Z,83.59
2017-11-14T17:44:40.775Z,83.76
2017-11-14T17:47:08.235Z,83.60
2017-11-14T17:49:35.736Z,82.95
2017-11-14T17:52:03.228Z,83.82
2017-11-14T17:54:30.790Z,84.20
2017-11-14T17:56:58.262Z,84.11
2017-11-14T17:59:25.793Z,84.17
2017-11-14T18:01:53.238Z,84.79
2017-11-14T18:04:20.825Z,84.98
2017-11-14T18:06:48.286Z,84.95
2017-11-14T18:09:15.795Z,85.48
2017-11-14T18:11:43.258Z,85.34
2017-11-14T18:14:10.727Z,85.12
2017-11-14T18:16:38.217Z,85.47
2017-11-14T18:19:05.708Z,85.79
2017-11-14T18:21:33.191Z,86.17
2017-11-14T18:24:00.661Z,85.95
2017-11-14T18:26:28.147Z,85.40
2017-11-14T18:28:55.607Z,85.76
2017-11-14T18:31:23.085Z,85.86
2017-11-14T18:33:50.538Z,86.05
2017-11-14T18:36:18.132Z,86.24
2017-11-14T18:38:45.599Z,87.06
2017-11-14T18:41:13.319Z,88.23
2017-11-14T18:43:40.799Z,88.22
2017-11-14T18:46:08.303Z,87.87
2017-11-14T18:48:35.766Z,87.20
2017-11-14T18:51:03.324Z,87.40
2017-11-14T18:53:30.822Z,87.27
2017-11-14T18:55:58.286Z,86.77
2017-11-14T18:58:25.775Z,86.60
2017-11-14T19:00:53.230Z,87.14
2017-11-14T19:03:20.712Z,87.63
2017-11-14T19:05:48.202Z,87.27
2017-11-14T19:08:15.696Z,86.68
2017-11-14T19:10:43.162Z,86.68
2017-11-14T19:13:10.743Z,87.22
2017-11-14T19:15:38.288Z,87.28
2017-11-14T19:18:05.754Z,87.29
2017-11-14T19:20:33.230Z,87.92
2017-11-14T19:23:00.690Z,87.73
2017-11-14T19:25:28.219Z,87.76
2017-11-14T19:27:55.683Z,88.40
2017-11-14T19:30:23.163Z,88.45
2017-11-14T19:32:50.637Z,88.38
2017-11-14T19:35:18.139Z,88.13
2017-11-14T19:37:45.594Z,87.97
2017-11-14T19:40:13.078Z,87.74
2017-11-14T19:42:40.538Z,87.78
2017-11-14T19:45:07.997Z,87.77
2017-11-14T19:47:35.604Z,86.98
2017-11-14T19:50:03.093Z,87.32
2017-11-14T19:52:30.586Z,87.37
2017-11-14T19:54:58.050Z,87.15
2017-11-14T19:57:25.578Z,88.04
2017-11-14T19:59:53.133Z,88.30
2017-11-14T20:02:20.611Z,88.50
2017-11-14T20:04:48.139Z,88.04
2017-11-14T20:07:15.655Z,88.31
2017-11-14T20:09:43.121Z,88.29
2017-11-14T20:12:10.719Z,88.28
2017-11-14T20:14:38.208Z,88.24
2017-11-14T20:17:05.670Z,87.88
2017-11-14T20:19:33.166Z,87.85
2017-11-14T20:22:00.638Z,88.44
2017-11-14T20:24:28.123Z,88.20
2017-11-14T20:26:55.582Z,88.27
2017-11-14T20:29:23.062Z,88.33
2017-11-14T20:31:50.526Z,88.54
2017-11-14T20:34:18.007Z,88.68
2017-11-14T20:36:45.523Z,88.79
2017-11-14T20:39:13.003Z,88.61
2017-11-14T20:41:40.462Z,88.68
2017-11-14T20:44:07.959Z,88.43
2017-11-14T20:46:35.426Z,88.85
2017-11-14T20:49:02.933Z,89.05
2017-11-14T20:51:30.391Z,88.93
2017-11-14T20:53:57.862Z,89.07
2017-11-14T20:56:25.340Z,89.93
2017-11-14T20:58:52.831Z,89.27
2017-11-14T21:01:20.330Z,88.83
2017-11-14T21:03:47.789Z,88.98
2017-11-14T21:06:15.290Z,89.26
2017-11-14T21:08:42.758Z,88.89
2017-11-14T21:11:10.243Z,88.79
2017-11-14T21:13:37.703Z,88.88
2017-11-14T21:16:05.186Z,88.66
2017-11-14T21:18:32.655Z,88.88
2017-11-14T21:21:00.147Z,88.89
2017-11-14T21:23:27.612Z,88.64
2017-11-14T21:25:55.106Z,88.90
2017-11-14T21:28:22.603Z,88.87
2017-11-14T21:30:50.066Z,89.21
2017-11-14T21:33:17.549Z,89.42
2017-11-14T21:35:45.022Z,89.45
2017-11-14T21:38:12.503Z,89.50
2017-11-14T21:40:40.000Z,89.16
2017-11-14T21:43:07.482Z,89.05
2017-11-14T21:45:34.977Z,88.88
2017-11-14T21:48:02.476Z,88.93
2017-11-14T21:50:29.952Z,88.55
2017-11-14T21:52:57.450Z,88.94
2017-11-14T21:55:25.577Z,89.07
2017-11-14T21:57:53.088Z,88.93
2017-11-14T22:00:20.568Z,89.12
2017-11-14T22:02:48.100Z,89.08
2017-11-14T22:05:15.609Z,89.39
2017-11-14T22:07:43.118Z,89.27
2017-11-14T22:10:10.605Z,89.62
2017-11-14T22:12:38.070Z,89.51
2017-11-14T22:15:05.585Z,90.90
2017-11-14T22:17:33.130Z,90.44
2017-11-14T22:20:00.620Z,90.48
2017-11-14T22:22:28.107Z,89.79
2017-11-14T22:24:55.762Z,90.29
2017-11-14T22:27:23.237Z,90.17
2017-11-14T22:29:50.719Z,90.06
2017-11-14T22:32:18.182Z,89.96
2017-11-14T22:34:45.689Z,89.56
2017-11-14T22:37:13.167Z,89.48
2017-11-14T22:39:40.667Z,89.64
2017-11-14T22:42:08.155Z,89.30
2017-11-14T22:44:35.619Z,89.54
2017-11-14T22:47:03.103Z,89.10
2017-11-14T22:49:30.586Z,88.50
2017-11-14T22:51:58.071Z,88.21
2017-11-14T22:54:25.545Z,87.82
2017-11-14T22:56:53.042Z,88.07
2017-11-14T22:59:20.517Z,88.26
2017-11-14T23:01:48.001Z,88.98
2017-11-14T23:04:15.457Z,89.73
2017-11-14T23:06:42.958Z,90.59
2017-11-14T23:09:10.421Z,90.25
2017-11-14T23:11:38.003Z,89.70
2017-11-14T23:14:05.470Z,90.40
2017-11-14T23:16:32.969Z,89.88
2017-11-14T23:19:00.437Z,89.52
2017-11-14T23:21:27.924Z,89.48
2017-11-14T23:23:55.494Z,89.85
2017-11-14T23:26:22.956Z,89.87
2017-11-14T23:28:50.506Z,88.51
2017-11-14T23:31:17.974Z,88.26
2017-11-14T23:33:45.453Z,88.06
2017-11-14T23:36:12.922Z,87.99
2017-11-14T23:38:40.419Z,88.52
2017-11-14T23:41:07.998Z,89.45
2017-11-14T23:43:35.488Z,89.77
2017-11-14T23:46:02.995Z,90.09
2017-11-14T23:48:30.494Z,90.03
2017-11-14T23:50:57.963Z,90.17
2017-11-14T23:53:25.452Z,90.21
2017-11-14T23:55:52.939Z,89.53
2017-11-14T23:58:20.401Z,89.60
